Historique des stations

Station météo de Orçay

Altitude de la station : 145 m







Données météorologiques pour le 27/02/2021
Date
Heure
Températures Humidité Point de rosée Vitesse
du vent
Direction Rafales Windchill Pression Pluviométrie
Cumul
Date
Heure
Températures Humidité Point de rosée Vitesse
du vent
Direction Rafales Windchill Pression Pluviométrie
Cumul
27/02/2021 22:305.5 °C73 %1.1 °C6 km/hENE35 km/h4.4 1035 hPa-
27/02/2021 22:155.6 °C73 %1.1 °C8 km/hNNE35 km/h3.3 1035 hPa-
27/02/2021 22:005.7 °C72 %1.1 °C3 km/hNE35 km/h5.0 1035 hPa-
27/02/2021 21:455.9 °C72 %1.1 °C5 km/hNNE35 km/h5.6 1035 hPa-
27/02/2021 21:305.9 °C72 %1.1 °C3 km/hNNE35 km/h5.6 1035 hPa-
27/02/2021 21:146.1 °C72 %1.1 °C8 km/hNE35 km/h4.4 1035 hPa-
27/02/2021 20:596.1 °C71 %1.1 °C3 km/hN35 km/h5.6 1035 hPa-
27/02/2021 20:446.2 °C71 %1.1 °C3 km/hNNE35 km/h5.6 1035 hPa-
27/02/2021 20:306.3 °C70 %1.1 °C5 km/hNE35 km/h5.6 1035 hPa-
27/02/2021 20:146.7 °C69 %1.1 °C5 km/hNE35 km/h6.1 1035 hPa-
27/02/2021 20:006.9 °C68 %1.1 °C5 km/hNE35 km/h6.7 1035 hPa-
27/02/2021 19:447.2 °C68 %1.7 °C3 km/hNNE35 km/h6.7 1035 hPa-
27/02/2021 19:287.4 °C67 %1.7 °C5 km/hENE35 km/h6.7 1035 hPa-
27/02/2021 19:147.7 °C65 %1.7 °C5 km/hNNE35 km/h7.2 1035 hPa-
27/02/2021 18:597.9 °C64 %1.7 °C5 km/hNNE35 km/h7.2 1035 hPa-
27/02/2021 18:448.2 °C63 %1.7 °C8 km/hN35 km/h6.7 1035 hPa-
27/02/2021 18:298.7 °C61 %1.7 °C11 km/hNE35 km/h6.7 1035 hPa-
27/02/2021 18:159.1 °C60 %1.7 °C8 km/hN35 km/h7.8 1035 hPa-
27/02/2021 17:599.5 °C59 %1.7 °C6 km/hNE35 km/h8.3 1035 hPa-
27/02/2021 17:4310.0 °C57 %1.7 °C10 km/hN35 km/h8.3 1035 hPa-
27/02/2021 17:3010.4 °C56 %1.7 °C10 km/hNNO35 km/h9.4 1035 hPa-
27/02/2021 17:1410.7 °C55 %1.7 °C23 km/hNE35 km/h7.2 1035 hPa-
27/02/2021 16:5810.8 °C55 %2.2 °C6 km/hNNE35 km/h10.6 1035 hPa-
27/02/2021 16:4410.9 °C55 %2.2 °C19 km/hNE35 km/h8.3 1035 hPa-
27/02/2021 16:2911.2 °C52 %1.7 °C10 km/hNNE35 km/h10.0 1035 hPa-
27/02/2021 16:1411.3 °C52 %1.7 °C6 km/hNNE35 km/h11.1 1035 hPa-
27/02/2021 15:5911.3 °C53 %1.7 °C11 km/hNNE35 km/h9.4 1035 hPa-
27/02/2021 15:4511.5 °C52 %1.7 °C14 km/hNE35 km/h9.4 1035 hPa-
27/02/2021 15:2911.3 °C53 %2.2 °C11 km/hE35 km/h9.4 1035 hPa-
27/02/2021 15:1311.3 °C53 %1.7 °C11 km/hE35 km/h9.4 1035 hPa-
27/02/2021 14:5911.1 °C52 %1.7 °C5 km/hENE35 km/h11.1 1035 hPa-
27/02/2021 14:4410.9 °C52 %1.1 °C13 km/hENE35 km/h9.4 1036 hPa-
27/02/2021 14:3011.1 °C52 %1.7 °C13 km/hN35 km/h9.4 1036 hPa-
27/02/2021 14:1410.7 °C54 %1.7 °C14 km/hENE35 km/h8.3 1036 hPa-
27/02/2021 14:0010.6 °C54 %1.7 °C8 km/hN35 km/h9.4 1036 hPa-
27/02/2021 13:4410.6 °C53 %1.1 °C13 km/hNNE35 km/h8.3 1037 hPa-
27/02/2021 13:2910.3 °C54 %1.1 °C5 km/hENE35 km/h10.6 1037 hPa-
27/02/2021 13:1510.1 °C55 %1.1 °C16 km/hNE35 km/h7.2 1037 hPa-
27/02/2021 12:5910.1 °C57 %1.7 °C10 km/hENE35 km/h8.3 1037 hPa-
27/02/2021 12:459.9 °C57 %1.7 °C18 km/hE35 km/h7.2 1037 hPa-
27/02/2021 12:299.6 °C58 %1.7 °C14 km/hENE29 km/h6.7 1037 hPa-
27/02/2021 12:139.3 °C61 %2.2 °C14 km/hNE29 km/h6.7 1038 hPa-
27/02/2021 11:599.1 °C62 %2.2 °C19 km/hENE29 km/h5.6 1038 hPa-
27/02/2021 11:448.7 °C62 %1.7 °C14 km/hENE29 km/h6.1 1038 hPa-
27/02/2021 11:308.4 °C66 %2.2 °C11 km/hNE26 km/h6.1 1038 hPa-
27/02/2021 11:147.9 °C68 %2.2 °C8 km/hN26 km/h6.1 1038 hPa-
27/02/2021 11:007.4 °C70 %2.2 °C11 km/hNE26 km/h5.0 1038 hPa-
27/02/2021 10:447.1 °C72 %2.2 °C6 km/hNE24 km/h6.1 1038 hPa-
27/02/2021 10:286.5 °C76 %2.8 °C5 km/hNE24 km/h6.1 1038 hPa-
27/02/2021 10:145.8 °C79 %2.2 °C14 km/hN18 km/h2.2 1038 hPa-
27/02/2021 09:584.8 °C85 %2.8 °C5 km/hNNE18 km/h4.4 1038 hPa-
27/02/2021 09:443.6 °C91 %2.2 °C5 km/hNNE16 km/h2.8 1038 hPa-
27/02/2021 09:282.4 °C93 %1.7 °C2 km/hN13 km/h1.7 1038 hPa-
27/02/2021 09:141.7 °C94 %1.1 °C5 km/hNE6 km/h0.6 1038 hPa-
27/02/2021 08:590.8 °C94 %0.0 °C3 km/hNNE6 km/h-0.6 1038 hPa-
27/02/2021 08:45-0.1 °C93 %-1.1 °C6 km/hNO6 km/h-1.7 1038 hPa-
27/02/2021 08:29-0.9 °C92 %-2.2 °C2 km/hN5 km/h-1.7 1038 hPa-
27/02/2021 08:14-1.7 °C91 %-2.8 °C3 km/hNE5 km/h-2.8 1038 hPa-
27/02/2021 07:59-1.8 °C91 %-2.8 °C2 km/hNE5 km/h-2.2 1038 hPa-
27/02/2021 07:44-1.9 °C90 %-3.3 °C2 km/hNE5 km/h-2.2 1038 hPa-
27/02/2021 07:30-1.8 °C90 %-3.3 °C-NE5 km/h-1.7 1038 hPa-
27/02/2021 07:14-1.8 °C90 %-3.3 °C-NE5 km/h-1.7 1038 hPa-
27/02/2021 06:58-1.7 °C90 %-3.3 °C2 km/hNE5 km/h-2.2 1038 hPa-
27/02/2021 06:44-1.6 °C90 %-2.8 °C-NE3 km/h-1.7 1038 hPa-
27/02/2021 06:28-1.4 °C90 %-2.8 °C-NE3 km/h-1.7 1038 hPa-
27/02/2021 06:14-1.3 °C89 %-2.8 °C-NE3 km/h-1.1 1038 hPa-
27/02/2021 05:59-1.1 °C89 %-2.8 °C-NE3 km/h-1.1 1038 hPa-
27/02/2021 05:45-0.9 °C89 %-2.2 °C-NE3 km/h-1.1 1038 hPa-
27/02/2021 05:30-0.7 °C89 %-2.2 °C-NE3 km/h-0.6 1038 hPa-
27/02/2021 05:15-0.6 °C89 %-2.2 °C-NE3 km/h-0.6 1038 hPa-
27/02/2021 04:59-0.4 °C90 %-1.7 °C-NE3 km/h-0.6 1038 hPa-
27/02/2021 04:44-0.4 °C89 %-2.2 °C-NE3 km/h-0.6 1038 hPa-
27/02/2021 04:29-0.4 °C89 %-2.2 °C2 km/hNE3 km/h-1.1 1038 hPa-
27/02/2021 04:14-0.3 °C89 %-1.7 °C-NE3 km/h0.0 1038 hPa-
27/02/2021 03:59-0.2 °C89 %-1.7 °C-NE3 km/h0.0 1038 hPa-
27/02/2021 03:440.1 °C88 %-1.7 °C2 km/hNE3 km/h-0.6 1038 hPa-
27/02/2021 03:290.2 °C88 %-1.7 °C-NE3 km/h0.0 1038 hPa-
27/02/2021 03:140.4 °C88 %-1.1 °C-NE3 km/h0.6 1038 hPa-
27/02/2021 02:590.6 °C88 %-1.1 °C-NE3 km/h0.6 1038 hPa-
27/02/2021 02:440.7 °C88 %-1.1 °C-NE3 km/h0.6 1039 hPa-
27/02/2021 02:290.9 °C88 %-1.1 °C-NE3 km/h1.1 1038 hPa-
27/02/2021 02:141.1 °C88 %-0.6 °C-NE3 km/h1.1 1039 hPa-
27/02/2021 01:591.2 °C88 %-0.6 °C-NE3 km/h1.1 1039 hPa-
27/02/2021 01:441.2 °C88 %-0.6 °C2 km/hNE3 km/h0.6 1039 hPa-
27/02/2021 01:291.3 °C88 %-0.6 °C2 km/hNE3 km/h0.6 1039 hPa-
27/02/2021 01:141.4 °C88 %-0.6 °C2 km/hNE3 km/h1.1 1039 hPa-
27/02/2021 00:591.5 °C88 %0.0 °C-NE3 km/h1.7 1038 hPa-
27/02/2021 00:441.6 °C87 %-0.6 °C-NE3 km/h1.7 1038 hPa-
27/02/2021 00:291.8 °C88 %0.0 °C2 km/hNE3 km/h1.1 1038 hPa-
27/02/2021 00:141.9 °C88 %0.0 °C-NE3 km/h2.2 1038 hPa-


Minima :

Température : -1.9 °C
Humidité : 52 %
Point de rosée : -3.3 °C
Vent moyen : 2 km/h
Windchill : -2.8
Pression atm. : 1035 hPa
Maxima :

Température : 11.5 °C
Humidité : 94 %
Point de rosée : 2.8 °C
Vent moyen : 23 km/h
Windchill : 11.1
Pression atm. : 1039 hPa
Rafales max : 35 km/h
Cumul de pluie sur 24H : 0 mm

Orçay est une commune du département Loir-et-Cher (41).
La station météorologique du réseau de l'association la plus proche de Orçay est celle de Vierzon



Icône Facebook Association Météo Centre Icône Twitter Association Météo Centre Icône Chaîne Youtube Association Météo Centre Icône contact Association Météo Centre Icône Insta Association Météo Centre